Fountain Green, UT

1:56 PM MDT on September 17, 2014 (GMT -0600)
Mountain Dell Scout Ranch | Change Station
CLOSE
Current Station
Personal Weather Station
Location: Mount Pleasant, UT
Elevation: 7480 ft
Nearby Weather Stations

Elev 7480 ft 39.50 °N, 111.39 °W | Updated 2 seconds ago

Clear
Clear
77.7 °F
Feels Like 78 °F
N
3.0
Wind Variable Wind from West
Gusts 3.0 mph

Today
High -- | Low -- °F
--% Chance of Precip.
Yesterday
High -- | Low -- °F
Precip. -- in
7:09 AM 7:31 PM
Waning Crescent, 33% visible
Pressure 29.86 in
Visibility 10.0 miles
Clouds Clear
Heat Index 78 °F
Dew Point 42 °F
Humidity 28%
Rainfall 0.00 in
Snow Depth 0 in , 0 in , 0 in
UV 9 out of 12
Pollen 5.40 out of 12
Air Quality Not available.
Flu Activity Not available.
METAR KPUC 171853Z AUTO 15008KT 10SM CLR 28/03 A3013 RMK AO2 SLP112 T02780028

More Conditions Fewer Conditions

Pressure 29.86 in
Visibility 10.0 miles
Clouds Clear
Heat Index 78 °F
Dew Point 42 °F
Humidity 28%
Rainfall 0.00 in
Snow Depth 0 in , 0 in , 0 in
UV 9 out of 12
Pollen 5.40 out of 12
Air Quality Not available.
Flu Activity Not available.
METAR KPUC 171853Z AUTO 15008KT 10SM CLR 28/03 A3013 RMK AO2 SLP112 T02780028

More Conditions Fewer Conditions

10-Day Weather Forecast

Almanac

Astronomy

Sep. 17, 2014 Rise Set
Actual Time 7:09 AM MDT 7:31 PM MDT
Civil Twilight 6:42 AM MDT 7:58 PM MDT
Nautical Twilight 6:11 AM MDT 8:30 PM MDT
Astronomical Twilight 5:38 AM MDT 9:02 PM MDT
Moon 1:13 AM MDT 3:43 PM MDT
Length of Visible Light 13h 15m
Length of Day
12h 22m
Tomorrow will be 2m 34s shorter.
Waning Crescent, 33% of the Moon is Illuminated
Today
Waning Crescent
Sep 24
New
Oct 1
First Quarter
Oct 8
Full
Oct 15
Last Quarter

Today's Extremes

State Highs State Lows

Community

WunderPhotos

Upload Photos

1,754,149 photos uploaded!

Nearby

Snow Depth

Station Depth Elevation
Long Valley Jct 0 in 7360 ft
Trout Creek 0 in 9400 ft
Rock Creek 0 in 7900 ft
Mosby Mountain 0 in 9500 ft
Gooseberry R.S. 0 in 7920 ft

Earthquake Activity

City Distance Mag. Time & Date
No recent earthquake activity has been reported nearby.
Minimum magnitude displayed is 2.5.

Coastal Water Temperatures

Place Temperature
No Stations Reporting

Nearby Weather Stations